createdAt,value
2023-05-10T00:00:24.321Z,9.48
2023-05-10T00:03:20.834Z,9.47
2023-05-10T00:05:59.354Z,9.46
2023-05-10T00:09:07.518Z,9.45
2023-05-10T00:11:36.306Z,9.43
2023-05-10T00:14:13.944Z,9.42
2023-05-10T00:17:15.886Z,9.38
2023-05-10T00:19:49.438Z,9.33
2023-05-10T00:22:38.442Z,9.31
2023-05-10T00:25:22.000Z,9.31
2023-05-10T00:27:50.908Z,9.26
2023-05-10T00:30:36.713Z,9.26
2023-05-10T00:33:23.788Z,9.26
2023-05-10T00:36:08.718Z,9.23
2023-05-10T00:38:57.365Z,9.20
2023-05-10T00:41:54.158Z,9.18
2023-05-10T00:44:32.160Z,9.15
2023-05-10T00:47:17.796Z,9.14
2023-05-10T00:50:29.947Z,9.15
2023-05-10T00:53:28.379Z,9.12
2023-05-10T00:56:01.483Z,9.10
2023-05-10T00:58:33.104Z,9.07
2023-05-10T01:01:02.995Z,9.07
2023-05-10T01:03:32.143Z,9.06
2023-05-10T01:06:17.225Z,9.05
2023-05-10T01:08:45.738Z,9.05
2023-05-10T01:11:48.232Z,9.04
2023-05-10T01:14:49.084Z,9.00
2023-05-10T01:17:23.998Z,8.95
2023-05-10T01:20:37.368Z,8.89
2023-05-10T01:24:00.198Z,8.83
2023-05-10T01:27:09.862Z,8.80
2023-05-10T01:30:15.503Z,8.76
2023-05-10T01:33:19.634Z,8.70
2023-05-10T01:36:26.150Z,8.64
2023-05-10T01:39:21.595Z,8.63
2023-05-10T01:42:32.685Z,8.60
2023-05-10T01:45:25.519Z,8.56
2023-05-10T01:48:34.637Z,8.50
2023-05-10T01:51:53.099Z,8.44
2023-05-10T01:54:46.972Z,8.38
2023-05-10T01:57:40.885Z,8.35
2023-05-10T02:00:30.215Z,8.32
2023-05-10T02:03:20.434Z,8.28
2023-05-10T02:06:27.939Z,8.27
2023-05-10T02:09:17.355Z,8.22
2023-05-10T02:12:04.429Z,8.17
2023-05-10T02:15:27.052Z,8.13
2023-05-10T02:18:06.877Z,8.10
2023-05-10T02:21:04.956Z,8.07
2023-05-10T02:24:07.975Z,8.07
2023-05-10T02:26:59.201Z,8.04
2023-05-10T02:29:40.920Z,8.03
2023-05-10T02:32:48.861Z,8.00
2023-05-10T02:35:34.852Z,7.96
2023-05-10T02:38:54.747Z,7.95
2023-05-10T02:41:34.416Z,7.92
2023-05-10T02:44:13.072Z,7.91
2023-05-10T02:47:02.024Z,7.86
2023-05-10T02:50:04.113Z,7.87
2023-05-10T02:53:18.024Z,7.85
2023-05-10T02:56:27.080Z,7.82
2023-05-10T02:59:46.171Z,7.77
2023-05-10T03:02:31.616Z,7.72
2023-05-10T03:05:11.750Z,7.68
2023-05-10T03:08:00.643Z,7.62
2023-05-10T03:11:29.167Z,7.59
2023-05-10T03:14:34.233Z,7.57
2023-05-10T03:17:46.245Z,7.56
2023-05-10T03:20:49.789Z,7.47
2023-05-10T03:23:49.661Z,7.41
2023-05-10T03:26:58.704Z,7.39
2023-05-10T03:29:42.733Z,7.35
2023-05-10T03:33:12.876Z,7.35
2023-05-10T03:36:13.831Z,7.34
2023-05-10T03:39:00.698Z,7.32
2023-05-10T03:41:29.923Z,7.30
2023-05-10T03:44:01.311Z,7.29
2023-05-10T03:46:56.607Z,7.27
2023-05-10T03:49:33.466Z,7.26
2023-05-10T03:52:37.144Z,7.24
2023-05-10T03:55:56.660Z,7.28
2023-05-10T03:59:10.262Z,7.30
2023-05-10T04:01:50.272Z,7.29
2023-05-10T04:05:08.660Z,7.30
2023-05-10T04:08:00.626Z,7.32
2023-05-10T04:10:58.873Z,7.35
2023-05-10T04:13:58.899Z,7.38
2023-05-10T04:16:27.388Z,7.42
2023-05-10T04:19:05.242Z,7.46
2023-05-10T04:21:33.631Z,7.50
2023-05-10T04:24:38.736Z,7.55
2023-05-10T04:27:07.151Z,7.61
2023-05-10T04:29:35.675Z,7.66
2023-05-10T04:32:21.564Z,7.74
2023-05-10T04:34:59.401Z,7.79
2023-05-10T04:37:28.320Z,7.83
2023-05-10T04:40:01.237Z,7.89
2023-05-10T04:42:29.919Z,7.97
2023-05-10T04:45:04.994Z,8.05
2023-05-10T04:48:25.384Z,8.14
2023-05-10T04:51:22.621Z,8.25
2023-05-10T04:54:05.105Z,8.38
2023-05-10T04:56:45.586Z,8.52
2023-05-10T04:59:45.252Z,8.66
2023-05-10T05:02:46.257Z,8.79
2023-05-10T05:05:26.365Z,8.94
2023-05-10T05:07:54.735Z,9.03
2023-05-10T05:10:45.547Z,9.15
2023-05-10T05:13:44.441Z,9.32
2023-05-10T05:16:19.534Z,9.49
2023-05-10T05:18:48.311Z,9.63
2023-05-10T05:21:18.647Z,9.71
2023-05-10T05:24:01.171Z,9.82
2023-05-10T05:26:51.697Z,9.97
2023-05-10T05:29:32.197Z,10.19
2023-05-10T05:32:18.524Z,10.60
2023-05-10T05:34:49.784Z,11.03
2023-05-10T05:37:22.315Z,11.59
2023-05-10T05:40:08.109Z,12.10
2023-05-10T05:43:05.347Z,12.41
2023-05-10T05:45:41.222Z,12.94
2023-05-10T05:48:28.871Z,13.40
2023-05-10T05:50:57.829Z,13.73
2023-05-10T05:53:26.654Z,13.81
2023-05-10T05:56:00.464Z,13.90
2023-05-10T05:58:29.148Z,13.91
2023-05-10T06:01:00.178Z,14.13
2023-05-10T06:03:57.341Z,14.16
2023-05-10T06:06:52.757Z,14.29
2023-05-10T06:09:45.059Z,14.44
2023-05-10T06:12:21.212Z,14.44
2023-05-10T06:15:32.209Z,14.51
2023-05-10T06:18:10.797Z,14.55
2023-05-10T06:20:52.860Z,14.70
2023-05-10T06:23:24.628Z,14.73
2023-05-10T06:26:13.564Z,14.71
2023-05-10T06:28:46.979Z,14.96
2023-05-10T06:31:24.169Z,15.29
2023-05-10T06:34:13.427Z,15.27
2023-05-10T06:36:47.242Z,15.18
2023-05-10T06:39:20.984Z,15.16
2023-05-10T06:41:55.473Z,15.19
2023-05-10T06:45:11.867Z,15.11
2023-05-10T06:48:20.626Z,15.04
2023-05-10T06:51:30.220Z,15.27
2023-05-10T06:54:24.332Z,15.21
2023-05-10T06:57:36.253Z,15.13
2023-05-10T07:00:16.582Z,15.16
2023-05-10T07:03:13.499Z,15.18
2023-05-10T07:05:45.178Z,15.17
2023-05-10T07:08:14.531Z,15.10
2023-05-10T07:11:02.555Z,15.04
2023-05-10T07:13:37.419Z,15.02
2023-05-10T07:16:39.304Z,15.06
2023-05-10T07:19:30.968Z,15.19
2023-05-10T07:21:59.834Z,15.35
2023-05-10T07:24:45.763Z,15.49
2023-05-10T07:27:54.854Z,15.64
2023-05-10T07:30:35.985Z,15.61
2023-05-10T07:33:36.634Z,15.67
2023-05-10T07:36:32.104Z,15.85
2023-05-10T07:39:27.745Z,15.90
2023-05-10T07:42:13.558Z,15.81
2023-05-10T07:44:48.359Z,15.85
2023-05-10T07:47:25.596Z,16.02
2023-05-10T07:50:22.408Z,16.29
2023-05-10T07:53:00.246Z,16.46
2023-05-10T07:55:28.769Z,16.65
2023-05-10T07:58:02.398Z,16.80
2023-05-10T08:00:57.700Z,16.76
2023-05-10T08:03:39.281Z,16.93
2023-05-10T08:06:33.444Z,17.04
2023-05-10T08:09:02.448Z,16.98
2023-05-10T08:12:17.878Z,17.19
2023-05-10T08:14:46.909Z,17.50
2023-05-10T08:17:26.255Z,17.53
2023-05-10T08:19:54.401Z,17.43
2023-05-10T08:22:35.744Z,17.28
2023-05-10T08:25:22.442Z,17.21
2023-05-10T08:27:51.891Z,17.36
2023-05-10T08:30:32.789Z,17.65
2023-05-10T08:33:04.588Z,17.91
2023-05-10T08:35:34.351Z,17.89
2023-05-10T08:38:04.386Z,17.82
2023-05-10T08:40:43.508Z,17.81
2023-05-10T08:43:17.091Z,17.77
2023-05-10T08:46:26.039Z,17.77
2023-05-10T08:48:55.282Z,18.08
2023-05-10T08:52:05.382Z,18.18
2023-05-10T08:54:54.943Z,18.29
2023-05-10T08:57:32.154Z,18.24
2023-05-10T09:00:03.788Z,18.39
2023-05-10T09:02:32.716Z,18.57
2023-05-10T09:05:04.985Z,18.60
2023-05-10T09:07:54.016Z,18.90
2023-05-10T09:10:43.196Z,19.16
2023-05-10T09:13:15.282Z,19.27
2023-05-10T09:15:45.145Z,19.01
2023-05-10T09:18:16.586Z,18.75
2023-05-10T09:21:37.978Z,18.81
2023-05-10T09:24:18.624Z,18.85
2023-05-10T09:27:06.743Z,18.45
2023-05-10T09:29:44.569Z,18.09
2023-05-10T09:32:13.774Z,17.89
2023-05-10T09:35:23.303Z,18.02
2023-05-10T09:37:55.137Z,18.36
2023-05-10T09:40:28.229Z,18.72
2023-05-10T09:43:19.879Z,19.01
2023-05-10T09:45:52.315Z,19.15
2023-05-10T09:48:25.397Z,19.07
2023-05-10T09:51:00.162Z,19.04
2023-05-10T09:53:31.797Z,19.18
2023-05-10T09:56:12.649Z,18.97
2023-05-10T09:59:22.820Z,18.73
2023-05-10T10:01:52.696Z,18.45
2023-05-10T10:04:30.755Z,18.27
2023-05-10T10:07:24.823Z,18.16
2023-05-10T10:10:12.477Z,18.35
2023-05-10T10:12:58.840Z,18.83
2023-05-10T10:15:40.832Z,18.91
2023-05-10T10:18:17.015Z,18.89
2023-05-10T10:20:56.229Z,18.91
2023-05-10T10:23:33.646Z,19.17
2023-05-10T10:26:11.779Z,19.41
2023-05-10T10:29:28.808Z,19.56
2023-05-10T10:32:20.211Z,19.71
2023-05-10T10:35:24.448Z,19.93
2023-05-10T10:37:52.970Z,19.99
2023-05-10T10:40:34.620Z,19.86
2023-05-10T10:43:46.079Z,19.94
2023-05-10T10:46:18.973Z,20.13
2023-05-10T10:49:14.708Z,20.38
2023-05-10T10:52:42.446Z,20.67
2023-05-10T10:55:32.292Z,20.78
2023-05-10T10:58:42.622Z,20.89
2023-05-10T11:01:33.761Z,20.70
2023-05-10T11:04:25.717Z,20.26
2023-05-10T11:07:27.750Z,20.00
2023-05-10T11:10:37.371Z,19.90
2023-05-10T11:13:36.879Z,20.09
2023-05-10T11:16:28.318Z,20.26
2023-05-10T11:19:20.845Z,20.52
2023-05-10T11:21:50.850Z,20.55
2023-05-10T11:24:40.567Z,20.61
2023-05-10T11:28:10.940Z,20.76
2023-05-10T11:30:41.292Z,20.62
2023-05-10T11:33:30.161Z,20.38
2023-05-10T11:36:32.300Z,20.33
2023-05-10T11:39:12.656Z,20.27
2023-05-10T11:41:44.150Z,20.11
2023-05-10T11:44:22.999Z,19.92
2023-05-10T11:47:11.752Z,20.21
2023-05-10T11:49:49.988Z,20.32
2023-05-10T11:52:31.003Z,20.23
2023-05-10T11:55:20.192Z,19.93
2023-05-10T11:58:06.341Z,20.02
2023-05-10T12:00:47.542Z,20.01
2023-05-10T12:03:32.950Z,19.70
2023-05-10T12:06:11.870Z,19.82
2023-05-10T12:08:55.454Z,19.99
2023-05-10T12:11:44.222Z,20.14
2023-05-10T12:14:25.276Z,20.09
2023-05-10T12:17:01.140Z,19.70
2023-05-10T12:19:40.244Z,19.39
2023-05-10T12:22:11.773Z,19.27
2023-05-10T12:24:40.693Z,19.57
2023-05-10T12:27:10.019Z,20.09
2023-05-10T12:29:45.027Z,20.54
2023-05-10T12:32:45.860Z,20.68
2023-05-10T12:35:23.248Z,20.54
2023-05-10T12:38:27.722Z,20.59
2023-05-10T12:41:12.499Z,20.69
2023-05-10T12:43:41.949Z,20.86
2023-05-10T12:46:35.777Z,20.79
2023-05-10T12:49:24.873Z,20.55
2023-05-10T12:52:13.509Z,20.15
2023-05-10T12:54:50.926Z,20.24
2023-05-10T12:57:19.311Z,20.37
2023-05-10T12:59:51.006Z,20.53
2023-05-10T13:02:19.506Z,20.46
2023-05-10T13:04:51.003Z,20.27
2023-05-10T13:07:19.750Z,20.23
2023-05-10T13:09:50.893Z,20.35
2023-05-10T13:12:21.211Z,20.49
2023-05-10T13:14:50.218Z,20.67
2023-05-10T13:17:28.038Z,20.83
2023-05-10T13:20:06.992Z,20.87
2023-05-10T13:22:40.103Z,20.87
2023-05-10T13:25:10.504Z,20.80
2023-05-10T13:27:40.413Z,20.80
2023-05-10T13:30:10.678Z,20.80
2023-05-10T13:32:46.918Z,20.43
2023-05-10T13:35:19.787Z,20.27
2023-05-10T13:37:57.877Z,20.32
2023-05-10T13:40:26.508Z,20.61
2023-05-10T13:42:55.352Z,20.80
2023-05-10T13:45:23.816Z,20.89
2023-05-10T13:47:54.830Z,20.86
2023-05-10T13:50:32.716Z,20.51
2023-05-10T13:53:10.775Z,20.31
2023-05-10T13:55:42.305Z,20.08
2023-05-10T13:58:11.926Z,20.05
2023-05-10T14:00:40.462Z,20.02
2023-05-10T14:03:12.300Z,20.10
2023-05-10T14:05:44.265Z,20.07
2023-05-10T14:08:14.414Z,20.02
2023-05-10T14:10:43.139Z,20.04
2023-05-10T14:13:11.578Z,20.03
2023-05-10T14:15:49.303Z,19.93
2023-05-10T14:18:17.956Z,19.87
2023-05-10T14:20:58.426Z,19.97
2023-05-10T14:23:35.611Z,20.12
2023-05-10T14:26:04.666Z,20.16
2023-05-10T14:28:36.583Z,20.10
2023-05-10T14:31:06.778Z,20.14
2023-05-10T14:33:35.116Z,20.17
2023-05-10T14:36:04.746Z,20.13
2023-05-10T14:38:34.028Z,20.08
2023-05-10T14:41:03.151Z,20.02
2023-05-10T14:43:31.660Z,20.03
2023-05-10T14:46:00.800Z,20.00
2023-05-10T14:48:33.607Z,19.95
2023-05-10T14:51:02.249Z,19.96
2023-05-10T14:53:38.353Z,19.99
2023-05-10T14:56:08.394Z,19.99
2023-05-10T14:58:36.822Z,19.94
2023-05-10T15:01:08.751Z,19.91
2023-05-10T15:03:40.867Z,19.87
2023-05-10T15:06:10.468Z,19.74
2023-05-10T15:08:42.318Z,19.69
2023-05-10T15:11:17.480Z,19.73
2023-05-10T15:13:45.782Z,19.73
2023-05-10T15:16:14.346Z,19.73
2023-05-10T15:18:42.766Z,19.73
2023-05-10T15:21:11.682Z,19.73
2023-05-10T15:23:39.885Z,19.66
2023-05-10T15:26:09.029Z,19.64
2023-05-10T15:28:48.086Z,19.65
2023-05-10T15:31:38.645Z,19.66
2023-05-10T15:34:09.897Z,19.59
2023-05-10T15:36:39.169Z,19.48
2023-05-10T15:39:08.012Z,19.45
2023-05-10T15:41:46.348Z,19.47
2023-05-10T15:44:15.365Z,19.48
2023-05-10T15:46:44.319Z,19.41
2023-05-10T15:49:13.366Z,19.35
2023-05-10T15:51:42.683Z,19.31
2023-05-10T15:54:12.062Z,19.26
2023-05-10T15:56:41.752Z,19.19
2023-05-10T15:59:12.003Z,19.13
2023-05-10T16:01:50.181Z,19.07
2023-05-10T16:04:44.958Z,19.04
2023-05-10T16:07:13.398Z,18.99
2023-05-10T16:09:53.207Z,18.97
2023-05-10T16:12:25.575Z,18.97
2023-05-10T16:14:54.070Z,18.98
2023-05-10T16:17:23.133Z,18.98
2023-05-10T16:19:54.819Z,18.98
2023-05-10T16:22:32.691Z,18.99
2023-05-10T16:25:01.149Z,18.98
2023-05-10T16:27:30.636Z,18.98
2023-05-10T16:30:08.942Z,18.97
2023-05-10T16:32:45.076Z,18.93
2023-05-10T16:35:17.776Z,18.91
2023-05-10T16:37:49.301Z,18.89
2023-05-10T16:40:20.959Z,18.89
2023-05-10T16:42:49.626Z,18.88
2023-05-10T16:45:21.186Z,18.88
2023-05-10T16:47:49.704Z,18.84
2023-05-10T16:50:18.880Z,18.84
2023-05-10T16:52:49.954Z,18.84
2023-05-10T16:55:19.715Z,18.82
2023-05-10T16:58:08.751Z,18.81
2023-05-10T17:00:40.943Z,18.74
2023-05-10T17:03:18.018Z,18.68
2023-05-10T17:05:47.222Z,18.68
2023-05-10T17:08:33.151Z,18.69
2023-05-10T17:11:04.980Z,18.68
2023-05-10T17:13:33.509Z,18.67
2023-05-10T17:16:05.110Z,18.65
2023-05-10T17:18:34.027Z,18.61
2023-05-10T17:21:02.729Z,18.56
2023-05-10T17:23:39.644Z,18.51
2023-05-10T17:26:09.189Z,18.44
2023-05-10T17:29:01.199Z,18.38
2023-05-10T17:31:34.398Z,18.31
2023-05-10T17:34:06.877Z,18.29
2023-05-10T17:36:36.779Z,18.26
2023-05-10T17:39:05.330Z,18.21
2023-05-10T17:41:33.767Z,18.15
2023-05-10T17:44:05.758Z,18.11
2023-05-10T17:46:35.708Z,18.07
2023-05-10T17:49:06.735Z,18.03
2023-05-10T17:51:51.658Z,17.98
2023-05-10T17:54:40.761Z,17.92
2023-05-10T17:57:09.204Z,17.84
2023-05-10T17:59:38.877Z,17.77
2023-05-10T18:02:16.918Z,17.72
2023-05-10T18:05:08.830Z,17.66
2023-05-10T18:07:37.400Z,17.57
2023-05-10T18:10:20.056Z,17.52
2023-05-10T18:12:50.755Z,17.44
2023-05-10T18:15:22.332Z,17.37
2023-05-10T18:17:50.950Z,17.30
2023-05-10T18:20:40.410Z,17.22
2023-05-10T18:23:13.244Z,17.14
2023-05-10T18:26:14.894Z,17.02
2023-05-10T18:28:43.460Z,16.94
2023-05-10T18:31:12.955Z,16.86
2023-05-10T18:33:42.687Z,16.77
2023-05-10T18:36:12.044Z,16.68
2023-05-10T18:38:47.661Z,16.62
2023-05-10T18:41:19.291Z,16.58
2023-05-10T18:43:53.496Z,16.54
2023-05-10T18:46:22.220Z,16.50
2023-05-10T18:48:56.130Z,16.50
2023-05-10T18:51:33.135Z,16.48
2023-05-10T18:54:08.029Z,16.41
2023-05-10T18:56:59.047Z,16.35
2023-05-10T18:59:34.486Z,16.27
2023-05-10T19:02:04.995Z,16.20
2023-05-10T19:04:42.756Z,16.13
2023-05-10T19:07:14.518Z,16.07
2023-05-10T19:09:51.703Z,16.03
2023-05-10T19:12:21.654Z,15.97
2023-05-10T19:14:51.091Z,15.92
2023-05-10T19:17:31.919Z,15.84
2023-05-10T19:20:03.843Z,15.72
2023-05-10T19:23:02.080Z,15.69
2023-05-10T19:25:39.756Z,15.66
2023-05-10T19:28:11.684Z,15.60
2023-05-10T19:30:41.883Z,15.56
2023-05-10T19:33:18.553Z,15.55
2023-05-10T19:35:59.623Z,15.55
2023-05-10T19:38:28.105Z,15.51
2023-05-10T19:41:06.841Z,15.46
2023-05-10T19:43:37.152Z,15.46
2023-05-10T19:46:06.094Z,15.48
2023-05-10T19:48:37.667Z,15.48
2023-05-10T19:51:09.339Z,15.45
2023-05-10T19:53:40.339Z,15.43
2023-05-10T19:56:09.230Z,15.42
2023-05-10T19:58:40.892Z,15.41
2023-05-10T20:01:09.642Z,15.39
2023-05-10T20:03:38.321Z,15.37
2023-05-10T20:06:09.726Z,15.33
2023-05-10T20:11:26.020Z,15.25
2023-05-10T20:13:57.299Z,15.21
2023-05-10T20:16:34.928Z,15.17
2023-05-10T20:19:03.466Z,15.10
2023-05-10T20:21:37.343Z,15.02
2023-05-10T20:24:07.924Z,14.95
2023-05-10T20:26:39.228Z,14.91
2023-05-10T20:29:07.945Z,14.86
2023-05-10T20:31:48.516Z,14.80
2023-05-10T20:34:40.343Z,14.78
2023-05-10T20:37:11.291Z,14.75
2023-05-10T20:39:47.439Z,14.73
2023-05-10T20:42:18.316Z,14.71
2023-05-10T20:44:47.474Z,14.68
2023-05-10T20:47:16.616Z,14.64
2023-05-10T20:49:47.784Z,14.54
2023-05-10T20:52:19.719Z,14.47
2023-05-10T20:54:48.332Z,14.43
2023-05-10T20:57:17.104Z,14.38
2023-05-10T20:59:45.391Z,14.32
2023-05-10T21:02:21.328Z,14.28
2023-05-10T21:04:49.820Z,14.25
2023-05-10T21:07:34.655Z,14.19
2023-05-10T21:10:03.818Z,14.12
2023-05-10T21:12:38.127Z,14.06
2023-05-10T21:15:25.796Z,14.02
2023-05-10T21:17:54.855Z,13.98
2023-05-10T21:20:24.098Z,13.93
2023-05-10T21:22:52.582Z,13.83
2023-05-10T21:25:23.261Z,13.68
2023-05-10T21:27:54.648Z,13.60
2023-05-10T21:30:23.499Z,13.56
2023-05-10T21:32:53.989Z,13.56
2023-05-10T21:35:25.623Z,13.58
2023-05-10T21:37:54.230Z,13.60
2023-05-10T21:40:25.778Z,13.59
2023-05-10T21:42:56.738Z,13.58
2023-05-10T21:45:29.316Z,13.55
2023-05-10T21:48:06.683Z,13.51
2023-05-10T21:50:38.183Z,13.52
2023-05-10T21:53:21.219Z,13.46
2023-05-10T21:55:55.361Z,13.44
2023-05-10T21:58:49.357Z,13.39
2023-05-10T22:01:30.553Z,13.29
2023-05-10T22:03:59.056Z,13.25
2023-05-10T22:06:27.667Z,13.24
2023-05-10T22:08:56.371Z,13.21
2023-05-10T22:11:27.580Z,13.14
2023-05-10T22:14:09.345Z,13.09
2023-05-10T22:16:38.413Z,13.02
2023-05-10T22:19:06.782Z,12.98
2023-05-10T22:22:12.419Z,12.96
2023-05-10T22:24:40.975Z,12.97
2023-05-10T22:27:38.945Z,13.01
2023-05-10T22:30:26.103Z,13.06
2023-05-10T22:33:17.917Z,13.08
2023-05-10T22:36:29.551Z,13.03
2023-05-10T22:39:33.665Z,12.91
2023-05-10T22:42:02.772Z,12.79
2023-05-10T22:44:34.527Z,12.70
2023-05-10T22:47:13.472Z,12.64
2023-05-10T22:50:05.458Z,12.70
2023-05-10T22:52:54.090Z,12.71
2023-05-10T22:55:23.286Z,12.69
2023-05-10T22:57:52.779Z,12.69
2023-05-10T23:00:25.779Z,12.70
2023-05-10T23:03:15.298Z,12.65
2023-05-10T23:05:44.328Z,12.59
2023-05-10T23:08:15.381Z,12.55
2023-05-10T23:10:47.454Z,12.52
2023-05-10T23:13:50.690Z,12.47
2023-05-10T23:16:30.736Z,12.38
2023-05-10T23:19:04.612Z,12.32
2023-05-10T23:21:33.884Z,12.28
2023-05-10T23:24:09.955Z,12.22
2023-05-10T23:26:46.666Z,12.18
2023-05-10T23:30:00.753Z,12.16
2023-05-10T23:32:33.227Z,12.20
2023-05-10T23:35:05.165Z,12.23
2023-05-10T23:38:14.096Z,12.23
2023-05-10T23:40:51.709Z,12.21
2023-05-10T23:43:49.397Z,12.23
2023-05-10T23:46:17.802Z,12.22
2023-05-10T23:48:47.225Z,12.22
2023-05-10T23:52:27.652Z,12.22
2023-05-10T23:54:58.810Z,12.18
2023-05-10T23:57:41.993Z,12.17
